createdAt,value
2023-02-02T00:02:03.097Z,5.26
2023-02-02T00:04:31.971Z,5.33
2023-02-02T00:06:58.804Z,5.38
2023-02-02T00:09:30.601Z,5.38
2023-02-02T00:11:57.938Z,5.46
2023-02-02T00:14:24.993Z,5.45
2023-02-02T00:16:53.308Z,5.51
2023-02-02T00:19:22.296Z,5.43
2023-02-02T00:21:48.902Z,5.54
2023-02-02T00:24:18.039Z,5.59
2023-02-02T00:26:46.621Z,5.58
2023-02-02T00:29:24.029Z,5.57
2023-02-02T00:31:51.059Z,5.62
2023-02-02T00:34:18.204Z,5.68
2023-02-02T00:36:47.434Z,5.66
2023-02-02T00:39:20.006Z,5.69
2023-02-02T00:41:47.014Z,5.81
2023-02-02T00:44:32.282Z,5.80
2023-02-02T00:46:59.524Z,5.82
2023-02-02T00:49:26.023Z,5.80
2023-02-02T00:51:52.524Z,5.81
2023-02-02T00:54:19.347Z,5.87
2023-02-02T00:56:45.963Z,5.79
2023-02-02T00:59:12.666Z,5.89
2023-02-02T01:01:39.254Z,5.79
2023-02-02T01:04:06.034Z,5.84
2023-02-02T01:06:32.600Z,5.93
2023-02-02T01:08:59.172Z,5.86
2023-02-02T01:11:25.836Z,5.94
2023-02-02T01:13:53.386Z,5.97
2023-02-02T01:16:22.487Z,5.88
2023-02-02T01:18:50.747Z,5.86
2023-02-02T01:21:17.859Z,5.78
2023-02-02T01:23:44.378Z,5.80
2023-02-02T01:26:12.170Z,5.78
2023-02-02T01:28:39.183Z,5.69
2023-02-02T01:31:11.261Z,5.64
2023-02-02T01:33:37.859Z,5.76
2023-02-02T01:36:06.923Z,5.68
2023-02-02T01:38:33.804Z,5.63
2023-02-02T01:41:00.316Z,5.50
2023-02-02T01:43:29.477Z,5.47
2023-02-02T01:45:58.131Z,5.52
2023-02-02T01:48:34.164Z,5.46
2023-02-02T01:51:05.621Z,5.60
2023-02-02T01:53:34.366Z,5.54
2023-02-02T01:56:01.850Z,5.58
2023-02-02T01:58:30.530Z,5.59
2023-02-02T02:00:57.160Z,5.60
2023-02-02T02:03:30.222Z,5.43
2023-02-02T02:06:01.428Z,5.45
2023-02-02T02:08:29.117Z,5.43
2023-02-02T02:10:56.447Z,5.47
2023-02-02T02:13:44.533Z,5.48
2023-02-02T02:17:13.974Z,5.44
2023-02-02T02:20:23.616Z,5.48
2023-02-02T02:23:56.317Z,5.44
2023-02-02T02:26:34.871Z,5.48
2023-02-02T02:29:28.561Z,5.49
2023-02-02T02:32:23.411Z,5.44
2023-02-02T02:34:56.301Z,5.49
2023-02-02T02:37:38.861Z,5.47
2023-02-02T02:40:45.787Z,5.53
2023-02-02T02:43:26.249Z,5.61
2023-02-02T02:45:53.996Z,5.68
2023-02-02T02:48:20.854Z,5.67
2023-02-02T02:50:47.425Z,5.69
2023-02-02T02:53:23.895Z,5.71
2023-02-02T02:56:14.943Z,5.65
2023-02-02T02:58:50.552Z,5.65
2023-02-02T03:01:52.268Z,5.57
2023-02-02T03:04:23.608Z,5.60
2023-02-02T03:06:58.504Z,5.61
2023-02-02T03:09:29.500Z,5.66
2023-02-02T03:11:56.560Z,5.69
2023-02-02T03:14:23.079Z,5.76
2023-02-02T03:16:53.941Z,5.65
2023-02-02T03:19:20.521Z,5.74
2023-02-02T03:21:46.998Z,5.73
2023-02-02T03:24:13.557Z,5.62
2023-02-02T03:26:40.174Z,5.75
2023-02-02T03:29:06.736Z,5.70
2023-02-02T03:31:33.755Z,5.78
2023-02-02T03:34:00.349Z,5.62
2023-02-02T03:36:27.882Z,5.68
2023-02-02T03:38:54.409Z,5.68
2023-02-02T03:41:20.892Z,5.70
2023-02-02T03:43:47.383Z,5.82
2023-02-02T03:46:13.854Z,5.86
2023-02-02T03:48:40.352Z,5.75
2023-02-02T03:51:09.004Z,5.84
2023-02-02T03:53:35.641Z,5.79
2023-02-02T03:56:02.126Z,5.70
2023-02-02T03:58:28.607Z,5.73
2023-02-02T04:01:00.187Z,5.78
2023-02-02T04:03:26.678Z,5.78
2023-02-02T04:05:53.347Z,5.75
2023-02-02T04:08:19.880Z,5.80
2023-02-02T04:10:46.404Z,5.76
2023-02-02T04:13:12.920Z,5.84
2023-02-02T04:15:39.423Z,5.79
2023-02-02T04:18:05.957Z,5.74
2023-02-02T04:20:32.443Z,5.78
2023-02-02T04:22:58.916Z,5.84
2023-02-02T04:25:25.650Z,5.90
2023-02-02T04:27:52.398Z,5.84
2023-02-02T04:30:20.053Z,5.89
2023-02-02T04:32:47.034Z,5.87
2023-02-02T04:35:13.598Z,5.87
2023-02-02T04:37:40.082Z,5.81
2023-02-02T04:40:07.101Z,5.81
2023-02-02T04:42:35.019Z,5.85
2023-02-02T04:45:01.583Z,5.93
2023-02-02T04:47:28.087Z,5.79
2023-02-02T04:49:54.560Z,5.98
2023-02-02T04:52:21.127Z,5.99
2023-02-02T04:54:47.631Z,5.96
2023-02-02T04:57:14.171Z,5.86
2023-02-02T04:59:42.485Z,5.88
2023-02-02T05:02:09.254Z,5.89
2023-02-02T05:04:35.826Z,5.68
2023-02-02T05:07:02.333Z,5.75
2023-02-02T05:09:28.900Z,5.81
2023-02-02T05:11:55.366Z,5.88
2023-02-02T05:14:21.865Z,5.82
2023-02-02T05:16:49.981Z,5.80
2023-02-02T05:19:17.038Z,5.94
2023-02-02T05:21:44.809Z,5.90
2023-02-02T05:24:12.432Z,5.93
2023-02-02T05:26:39.194Z,5.80
2023-02-02T05:29:06.776Z,5.78
2023-02-02T05:31:33.595Z,5.90
2023-02-02T05:34:00.506Z,5.92
2023-02-02T05:36:27.471Z,5.89
2023-02-02T05:38:54.019Z,5.97
2023-02-02T05:41:20.504Z,5.85
2023-02-02T05:43:46.976Z,5.91
2023-02-02T05:46:13.596Z,6.01
2023-02-02T05:48:40.148Z,6.03
2023-02-02T05:51:12.379Z,6.00
2023-02-02T05:53:39.533Z,5.85
2023-02-02T05:56:06.267Z,5.92
2023-02-02T05:58:38.711Z,5.83
2023-02-02T06:01:10.862Z,5.92
2023-02-02T06:03:37.543Z,5.99
2023-02-02T06:06:06.820Z,5.89
2023-02-02T06:08:33.690Z,5.94
2023-02-02T06:11:00.243Z,5.94
2023-02-02T06:13:26.727Z,5.93
2023-02-02T06:15:53.404Z,5.96
2023-02-02T06:18:19.964Z,5.79
2023-02-02T06:20:47.012Z,5.83
2023-02-02T06:23:13.546Z,5.97
2023-02-02T06:25:40.368Z,5.95
2023-02-02T06:28:07.750Z,5.87
2023-02-02T06:30:34.304Z,5.93
2023-02-02T06:33:00.979Z,5.74
2023-02-02T06:35:27.703Z,5.88
2023-02-02T06:37:54.290Z,5.86
2023-02-02T06:40:20.779Z,5.77
2023-02-02T06:42:47.285Z,5.81
2023-02-02T06:45:13.809Z,5.82
2023-02-02T06:47:40.532Z,5.75
2023-02-02T06:50:07.460Z,5.75
2023-02-02T06:52:33.919Z,5.78
2023-02-02T06:55:00.489Z,5.76
2023-02-02T06:57:27.222Z,5.78
2023-02-02T06:59:53.953Z,5.74
2023-02-02T07:02:23.397Z,5.77
2023-02-02T07:04:49.993Z,5.76
2023-02-02T07:07:18.680Z,5.77
2023-02-02T07:09:45.205Z,5.77
2023-02-02T07:12:11.701Z,5.85
2023-02-02T07:14:38.237Z,5.88
2023-02-02T07:17:04.806Z,5.96
2023-02-02T07:19:31.329Z,5.84
2023-02-02T07:21:57.801Z,5.87
2023-02-02T07:24:24.355Z,5.93
2023-02-02T07:26:51.237Z,5.82
2023-02-02T07:29:20.751Z,5.76
2023-02-02T07:31:47.454Z,5.79
2023-02-02T07:34:14.144Z,5.86
2023-02-02T07:36:40.647Z,5.91
2023-02-02T07:39:07.795Z,6.02
2023-02-02T07:41:37.066Z,6.14
2023-02-02T07:44:04.801Z,6.39
2023-02-02T07:46:31.895Z,6.54
2023-02-02T07:48:58.899Z,6.46
2023-02-02T07:51:25.796Z,6.53
2023-02-02T07:53:53.754Z,6.34
2023-02-02T07:56:23.014Z,6.36
2023-02-02T07:58:51.889Z,6.15
2023-02-02T08:01:20.361Z,6.17
2023-02-02T08:03:47.006Z,6.14
2023-02-02T08:06:17.207Z,6.31
2023-02-02T08:08:43.710Z,6.40
2023-02-02T08:11:11.707Z,6.37
2023-02-02T08:13:39.256Z,6.40
2023-02-02T08:16:06.774Z,6.54
2023-02-02T08:18:34.580Z,6.59
2023-02-02T08:21:05.427Z,6.58
2023-02-02T08:23:34.530Z,6.69
2023-02-02T08:26:18.746Z,6.72
2023-02-02T08:28:51.206Z,6.97
2023-02-02T08:31:49.148Z,7.27
2023-02-02T08:34:15.665Z,7.13
2023-02-02T08:36:42.451Z,7.13
2023-02-02T08:39:11.934Z,7.10
2023-02-02T08:41:38.754Z,7.29
2023-02-02T08:44:11.511Z,7.54
2023-02-02T08:46:38.564Z,7.57
2023-02-02T08:49:05.204Z,7.85
2023-02-02T08:51:31.765Z,8.04
2023-02-02T08:53:58.287Z,8.18
2023-02-02T08:56:24.834Z,8.47
2023-02-02T08:58:58.254Z,8.64
2023-02-02T09:01:29.633Z,8.98
2023-02-02T09:04:02.343Z,9.20
2023-02-02T09:06:34.956Z,9.24
2023-02-02T09:09:01.613Z,9.38
2023-02-02T09:11:28.503Z,9.43
2023-02-02T09:13:56.980Z,9.19
2023-02-02T09:16:24.334Z,9.18
2023-02-02T09:18:50.940Z,9.26
2023-02-02T09:21:18.434Z,9.21
2023-02-02T09:23:45.650Z,9.23
2023-02-02T09:26:13.014Z,9.05
2023-02-02T09:28:40.953Z,8.89
2023-02-02T09:31:08.109Z,8.97
2023-02-02T09:33:35.237Z,8.56
2023-02-02T09:36:09.394Z,8.54
2023-02-02T09:38:36.281Z,8.51
2023-02-02T09:41:32.858Z,8.53
2023-02-02T09:44:05.369Z,8.17
2023-02-02T09:46:47.114Z,8.03
2023-02-02T09:49:23.189Z,7.90
2023-02-02T09:51:56.777Z,7.80
2023-02-02T09:54:28.846Z,7.84
2023-02-02T09:56:57.565Z,7.97
2023-02-02T09:59:29.024Z,8.11
2023-02-02T10:01:58.167Z,8.26
2023-02-02T10:04:45.621Z,8.40
2023-02-02T10:07:32.562Z,8.60
2023-02-02T10:10:11.218Z,8.53
2023-02-02T10:12:58.102Z,8.61
2023-02-02T10:15:46.190Z,8.67
2023-02-02T10:18:23.943Z,8.55
2023-02-02T10:20:59.594Z,8.49
2023-02-02T10:23:41.215Z,8.01
2023-02-02T10:26:22.560Z,8.10
2023-02-02T10:28:57.475Z,7.85
2023-02-02T10:32:02.679Z,7.85
2023-02-02T10:35:06.869Z,7.72
2023-02-02T10:37:45.978Z,7.60
2023-02-02T10:40:57.381Z,7.47
2023-02-02T10:43:48.398Z,7.27
2023-02-02T10:46:38.409Z,7.54
2023-02-02T10:49:15.200Z,7.66
2023-02-02T10:51:46.052Z,7.68
2023-02-02T10:54:50.040Z,7.72
2023-02-02T10:57:32.859Z,8.03
2023-02-02T11:00:16.022Z,8.26
2023-02-02T11:02:42.585Z,8.29
2023-02-02T11:05:32.988Z,8.10
2023-02-02T11:07:59.450Z,8.20
2023-02-02T11:10:26.208Z,8.28
2023-02-02T11:12:53.689Z,8.27
2023-02-02T11:15:29.068Z,8.47
2023-02-02T11:17:55.597Z,8.66
2023-02-02T11:20:33.774Z,8.31
2023-02-02T11:23:02.394Z,8.31
2023-02-02T11:25:34.621Z,8.35
2023-02-02T11:28:10.877Z,8.26
2023-02-02T11:30:38.417Z,8.50
2023-02-02T11:33:27.984Z,8.62
2023-02-02T11:35:57.341Z,8.60
2023-02-02T11:38:24.081Z,8.66
2023-02-02T11:41:01.009Z,8.96
2023-02-02T11:43:34.113Z,8.81
2023-02-02T11:46:04.578Z,8.96
2023-02-02T11:48:36.706Z,8.89
2023-02-02T11:51:04.094Z,8.93
2023-02-02T11:53:42.920Z,8.74
2023-02-02T11:56:17.948Z,8.62
2023-02-02T11:58:46.672Z,8.34
2023-02-02T12:01:24.845Z,8.15
2023-02-02T12:03:53.526Z,8.28
2023-02-02T12:06:22.172Z,8.11
2023-02-02T12:08:49.319Z,8.07
2023-02-02T12:11:37.926Z,7.93
2023-02-02T12:14:26.309Z,7.81
2023-02-02T12:16:56.385Z,7.89
2023-02-02T12:19:29.172Z,7.98
2023-02-02T12:22:14.437Z,7.99
2023-02-02T12:24:57.128Z,7.41
2023-02-02T12:27:26.817Z,6.89
2023-02-02T12:30:05.323Z,6.99
2023-02-02T12:32:51.444Z,6.91
2023-02-02T12:35:40.540Z,6.76
2023-02-02T12:38:26.856Z,6.67
2023-02-02T12:41:37.607Z,6.43
2023-02-02T12:44:32.865Z,6.53
2023-02-02T12:47:14.963Z,6.42
2023-02-02T12:49:46.486Z,6.58
2023-02-02T12:52:39.831Z,6.77
2023-02-02T12:55:23.311Z,6.76
2023-02-02T12:57:57.855Z,6.82
2023-02-02T13:00:43.612Z,6.82
2023-02-02T13:03:30.612Z,6.87
2023-02-02T13:06:11.422Z,6.78
2023-02-02T13:08:56.125Z,6.78
2023-02-02T13:11:31.367Z,6.76
2023-02-02T13:14:08.346Z,7.20
2023-02-02T13:16:37.423Z,7.66
2023-02-02T13:19:07.563Z,8.19
2023-02-02T13:21:36.170Z,8.59
2023-02-02T13:24:06.043Z,8.81
2023-02-02T13:26:38.546Z,9.07
2023-02-02T13:29:19.793Z,9.36
2023-02-02T13:31:53.570Z,9.47
2023-02-02T13:34:38.823Z,9.72
2023-02-02T13:37:24.031Z,9.96
2023-02-02T13:39:56.720Z,10.41
2023-02-02T13:42:52.420Z,10.83
2023-02-02T13:45:30.160Z,10.26
2023-02-02T13:48:11.819Z,10.15
2023-02-02T13:50:47.641Z,9.98
2023-02-02T13:53:39.665Z,9.40
2023-02-02T13:56:25.043Z,9.21
2023-02-02T13:59:08.584Z,8.89
2023-02-02T14:01:35.479Z,8.76
2023-02-02T14:04:02.039Z,8.56
2023-02-02T14:06:28.825Z,8.13
2023-02-02T14:09:01.683Z,8.05
2023-02-02T14:11:31.763Z,8.08
2023-02-02T14:14:29.358Z,7.75
2023-02-02T14:16:56.693Z,7.55
2023-02-02T14:19:29.371Z,7.61
2023-02-02T14:22:12.166Z,7.54
2023-02-02T14:24:39.998Z,7.30
2023-02-02T14:27:12.511Z,7.28
2023-02-02T14:29:47.982Z,7.12
2023-02-02T14:32:27.864Z,7.01
2023-02-02T14:35:14.160Z,7.04
2023-02-02T14:37:54.479Z,7.01
2023-02-02T14:40:35.922Z,6.78
2023-02-02T14:43:42.597Z,6.73
2023-02-02T14:46:15.212Z,6.61
2023-02-02T14:48:50.255Z,6.61
2023-02-02T14:51:19.202Z,6.53
2023-02-02T14:53:59.972Z,6.38
2023-02-02T14:56:50.733Z,6.31
2023-02-02T14:59:24.932Z,6.32
2023-02-02T15:02:01.315Z,6.34
2023-02-02T15:04:28.689Z,6.34
2023-02-02T15:06:55.892Z,6.34
2023-02-02T15:09:26.640Z,6.41
2023-02-02T15:12:00.800Z,6.37
2023-02-02T15:14:56.550Z,6.28
2023-02-02T15:17:39.482Z,6.27
2023-02-02T15:20:14.800Z,6.28
2023-02-02T15:22:46.444Z,6.23
2023-02-02T15:25:25.290Z,6.11
2023-02-02T15:27:57.958Z,6.15
2023-02-02T15:30:28.085Z,6.08
2023-02-02T15:35:41.122Z,5.98
2023-02-02T15:38:13.254Z,5.97
2023-02-02T15:40:39.858Z,5.92
2023-02-02T15:43:09.335Z,5.90
2023-02-02T15:45:52.772Z,5.87
2023-02-02T15:48:22.262Z,5.88
2023-02-02T15:50:54.597Z,5.88
2023-02-02T15:53:43.134Z,5.83
2023-02-02T15:56:24.884Z,5.72
2023-02-02T15:58:53.884Z,5.72
2023-02-02T16:01:22.675Z,5.68
2023-02-02T16:04:06.083Z,5.70
2023-02-02T16:06:34.815Z,5.65
2023-02-02T16:09:05.820Z,5.65
2023-02-02T16:11:32.296Z,5.55
2023-02-02T16:14:10.402Z,5.52
2023-02-02T16:16:39.782Z,5.51
2023-02-02T16:19:09.445Z,5.47
2023-02-02T16:21:38.670Z,5.41
2023-02-02T16:24:12.492Z,5.35
2023-02-02T16:26:39.280Z,5.29
2023-02-02T16:29:06.048Z,5.24
2023-02-02T16:31:32.784Z,5.17
2023-02-02T16:34:00.733Z,5.09
2023-02-02T16:36:29.773Z,5.04
2023-02-02T16:38:58.077Z,5.01
2023-02-02T16:41:35.467Z,4.94
2023-02-02T16:44:41.057Z,4.86
2023-02-02T16:47:08.735Z,4.77
2023-02-02T16:49:35.832Z,4.71
2023-02-02T16:52:15.191Z,4.63
2023-02-02T16:54:45.519Z,4.58
2023-02-02T16:57:17.873Z,4.48
2023-02-02T16:59:48.705Z,4.40
2023-02-02T17:02:23.164Z,4.33
2023-02-02T17:04:55.705Z,4.27
2023-02-02T17:07:22.547Z,4.20
2023-02-02T17:09:49.377Z,4.15
2023-02-02T17:12:30.678Z,4.09
2023-02-02T17:15:04.526Z,4.04
2023-02-02T17:17:31.329Z,3.97
2023-02-02T17:19:57.852Z,3.92
2023-02-02T17:22:25.771Z,3.86
2023-02-02T17:24:52.669Z,3.81
2023-02-02T17:27:26.514Z,3.77
2023-02-02T17:29:54.039Z,3.71
2023-02-02T17:32:20.690Z,3.66
2023-02-02T17:34:47.272Z,3.58
2023-02-02T17:37:13.806Z,3.48
2023-02-02T17:39:40.345Z,3.40
2023-02-02T17:42:08.338Z,3.34
2023-02-02T17:44:34.910Z,3.28
2023-02-02T17:47:01.452Z,3.22
2023-02-02T17:49:28.017Z,3.19
2023-02-02T17:51:55.033Z,3.14
2023-02-02T17:54:21.588Z,3.10
2023-02-02T17:56:48.148Z,3.06
2023-02-02T17:59:14.752Z,3.03
2023-02-02T18:01:44.245Z,2.99
2023-02-02T18:04:13.102Z,2.97
2023-02-02T18:06:40.080Z,2.94
2023-02-02T18:09:06.615Z,2.91
2023-02-02T18:11:33.392Z,2.87
2023-02-02T18:13:59.951Z,2.84
2023-02-02T18:16:26.572Z,2.82
2023-02-02T18:18:54.189Z,2.77
2023-02-02T18:21:21.358Z,2.73
2023-02-02T18:23:49.011Z,2.71
2023-02-02T18:26:22.310Z,2.68
2023-02-02T18:28:50.178Z,2.67
2023-02-02T18:31:19.461Z,2.65
2023-02-02T18:33:46.960Z,2.62
2023-02-02T18:36:20.010Z,2.60
2023-02-02T18:38:48.249Z,2.54
2023-02-02T18:41:16.015Z,2.50
2023-02-02T18:43:42.704Z,2.45
2023-02-02T18:46:13.520Z,2.41
2023-02-02T18:48:40.887Z,2.39
2023-02-02T18:51:10.343Z,2.38
2023-02-02T18:53:36.917Z,2.35
2023-02-02T18:56:07.561Z,2.34
2023-02-02T18:58:34.901Z,2.29
2023-02-02T19:01:11.931Z,2.23
2023-02-02T19:03:39.473Z,2.20
2023-02-02T19:06:25.707Z,2.19
2023-02-02T19:08:52.394Z,2.17
2023-02-02T19:11:21.686Z,2.16
2023-02-02T19:13:48.793Z,2.11
2023-02-02T19:16:24.678Z,2.08
2023-02-02T19:18:51.640Z,2.02
2023-02-02T19:21:18.231Z,1.99
2023-02-02T19:23:46.151Z,1.96
2023-02-02T19:26:24.663Z,1.92
2023-02-02T19:28:52.663Z,1.92
2023-02-02T19:31:19.471Z,1.90
2023-02-02T19:33:50.690Z,1.87
2023-02-02T19:36:22.590Z,1.87
2023-02-02T19:38:52.432Z,1.84
2023-02-02T19:41:20.142Z,1.85
2023-02-02T19:43:48.302Z,1.85
2023-02-02T19:46:18.761Z,1.86
2023-02-02T19:48:47.029Z,1.87
2023-02-02T19:51:43.899Z,1.87
2023-02-02T19:54:33.085Z,1.86
2023-02-02T19:57:04.779Z,1.85
2023-02-02T19:59:34.932Z,1.84
2023-02-02T20:02:25.653Z,1.81
2023-02-02T20:04:59.632Z,1.80
2023-02-02T20:07:26.444Z,1.82
2023-02-02T20:09:53.041Z,1.86
2023-02-02T20:12:26.966Z,1.91
2023-02-02T20:14:53.859Z,1.95
2023-02-02T20:17:28.990Z,1.98
2023-02-02T20:19:55.545Z,1.99
2023-02-02T20:22:28.443Z,2.02
2023-02-02T20:24:56.796Z,2.05
2023-02-02T20:27:25.861Z,2.09
2023-02-02T20:29:54.708Z,2.12
2023-02-02T20:32:35.135Z,2.16
2023-02-02T20:35:20.230Z,2.18
2023-02-02T20:37:46.929Z,2.19
2023-02-02T20:40:26.989Z,2.21
2023-02-02T20:42:53.810Z,2.23
2023-02-02T20:45:22.049Z,2.26
2023-02-02T20:47:49.178Z,2.30
2023-02-02T20:50:19.183Z,2.35
2023-02-02T20:52:45.800Z,2.39
2023-02-02T20:55:12.745Z,2.44
2023-02-02T20:57:40.265Z,2.45
2023-02-02T21:00:10.553Z,2.47
2023-02-02T21:02:37.204Z,2.45
2023-02-02T21:05:04.763Z,2.45
2023-02-02T21:07:31.414Z,2.46
2023-02-02T21:09:58.035Z,2.47
2023-02-02T21:12:25.802Z,2.48
2023-02-02T21:14:55.504Z,2.49
2023-02-02T21:17:22.150Z,2.50
2023-02-02T21:19:48.752Z,2.54
2023-02-02T21:22:15.347Z,2.53
2023-02-02T21:24:42.642Z,2.53
2023-02-02T21:27:10.061Z,2.56
2023-02-02T21:29:36.861Z,2.59
2023-02-02T21:32:04.655Z,2.60
2023-02-02T21:34:31.714Z,2.59
2023-02-02T21:36:58.769Z,2.63
2023-02-02T21:39:33.020Z,2.64
2023-02-02T21:42:13.497Z,2.66
2023-02-02T21:44:43.454Z,2.68
2023-02-02T21:47:32.253Z,2.67
2023-02-02T21:50:19.598Z,2.64
2023-02-02T21:52:46.276Z,2.66
2023-02-02T21:55:29.231Z,2.59
2023-02-02T21:57:57.715Z,2.65
2023-02-02T22:00:33.436Z,2.65
2023-02-02T22:03:00.029Z,2.67
2023-02-02T22:05:30.544Z,2.70
2023-02-02T22:07:57.974Z,2.70
2023-02-02T22:10:38.912Z,2.70
2023-02-02T22:13:16.277Z,2.70
2023-02-02T22:15:47.231Z,2.73
2023-02-02T22:18:14.495Z,2.71
2023-02-02T22:20:44.720Z,2.71
2023-02-02T22:23:15.114Z,2.72
2023-02-02T22:25:42.459Z,2.70
2023-02-02T22:28:22.453Z,2.73
2023-02-02T22:30:51.165Z,2.65
2023-02-02T22:33:17.967Z,2.58
2023-02-02T22:35:44.874Z,2.53
2023-02-02T22:38:16.148Z,2.57
2023-02-02T22:40:42.674Z,2.65
2023-02-02T22:43:09.202Z,2.74
2023-02-02T22:45:35.822Z,2.82
2023-02-02T22:48:02.356Z,2.85
2023-02-02T22:50:30.388Z,2.86
2023-02-02T22:52:57.162Z,2.83
2023-02-02T22:55:23.773Z,2.76
2023-02-02T22:57:50.333Z,2.84
2023-02-02T23:00:28.817Z,2.86
2023-02-02T23:02:56.022Z,2.83
2023-02-02T23:05:23.660Z,2.94
2023-02-02T23:07:50.354Z,2.96
2023-02-02T23:10:22.253Z,3.01
2023-02-02T23:12:49.203Z,2.99
2023-02-02T23:15:15.772Z,2.99
2023-02-02T23:17:42.301Z,3.05
2023-02-02T23:20:11.302Z,3.08
2023-02-02T23:22:37.933Z,3.11
2023-02-02T23:25:05.421Z,3.18
2023-02-02T23:27:31.898Z,3.22
2023-02-02T23:29:58.366Z,3.21
2023-02-02T23:32:24.875Z,3.26
2023-02-02T23:34:51.442Z,3.31
2023-02-02T23:37:17.979Z,3.35
2023-02-02T23:39:44.548Z,3.39
2023-02-02T23:42:11.039Z,3.31
2023-02-02T23:44:37.558Z,3.32
2023-02-02T23:47:04.289Z,3.34
2023-02-02T23:49:31.325Z,3.27
2023-02-02T23:51:57.836Z,3.38
2023-02-02T23:54:24.816Z,3.38
2023-02-02T23:56:51.562Z,3.37
2023-02-02T23:59:18.068Z,3.43
